sensor_id;sensor_type;location;lat;lon;timestamp;pressure;altitude;pressure_sealevel;temperature;humidity
46942;BME280;32676;52.630;4.896;2022-12-20T00:00:24;103793.25;;;8.74;83.79
46942;BME280;32676;52.630;4.896;2022-12-20T00:02:51;103788.91;;;8.76;83.74
46942;BME280;32676;52.630;4.896;2022-12-20T00:05:17;103780.16;;;8.76;83.63
46942;BME280;32676;52.630;4.896;2022-12-20T00:07:44;103771.38;;;8.74;83.69
46942;BME280;32676;52.630;4.896;2022-12-20T00:10:10;103775.75;;;8.73;83.74
46942;BME280;32676;52.630;4.896;2022-12-20T00:12:37;103760.03;;;8.73;83.62
46942;BME280;32676;52.630;4.896;2022-12-20T00:15:06;103749.38;;;8.67;83.66
46942;BME280;32676;52.630;4.896;2022-12-20T00:17:32;103749.47;;;8.70;83.73
46942;BME280;32676;52.630;4.896;2022-12-20T00:19:59;103743.31;;;8.68;83.75
46942;BME280;32676;52.630;4.896;2022-12-20T00:22:25;103745.97;;;8.71;83.74
46942;BME280;32676;52.630;4.896;2022-12-20T00:24:52;103752.13;;;8.72;83.73
46942;BME280;32676;52.630;4.896;2022-12-20T00:27:18;103746.91;;;8.73;83.60
46942;BME280;32676;52.630;4.896;2022-12-20T00:29:45;103755.63;;;8.72;83.63
46942;BME280;32676;52.630;4.896;2022-12-20T00:32:12;103747.75;;;8.72;83.66
46942;BME280;32676;52.630;4.896;2022-12-20T00:34:39;103742.50;;;8.72;83.45
46942;BME280;32676;52.630;4.896;2022-12-20T00:37:05;103742.38;;;8.66;83.45
46942;BME280;32676;52.630;4.896;2022-12-20T00:39:32;103751.22;;;8.71;83.48
46942;BME280;32676;52.630;4.896;2022-12-20T00:41:58;103746.03;;;8.74;83.34
46942;BME280;32676;52.630;4.896;2022-12-20T00:44:25;103726.56;;;8.63;83.39
46942;BME280;32676;52.630;4.896;2022-12-20T00:46:52;103737.25;;;8.72;83.31
46942;BME280;32676;52.630;4.896;2022-12-20T00:49:20;103732.03;;;8.72;83.31
46942;BME280;32676;52.630;4.896;2022-12-20T00:51:47;103718.75;;;8.64;83.39
46942;BME280;32676;52.630;4.896;2022-12-20T00:54:13;103722.31;;;8.68;83.28
46942;BME280;32676;52.630;4.896;2022-12-20T00:56:40;103720.47;;;8.64;83.43
46942;BME280;32676;52.630;4.896;2022-12-20T00:59:06;103724.03;;;8.66;83.34
46942;BME280;32676;52.630;4.896;2022-12-20T01:01:33;103726.69;;;8.69;83.38
46942;BME280;32676;52.630;4.896;2022-12-20T01:04:00;103723.16;;;8.67;83.32
46942;BME280;32676;52.630;4.896;2022-12-20T01:06:28;103728.56;;;8.73;83.37
46942;BME280;32676;52.630;4.896;2022-12-20T01:08:56;103728.56;;;8.73;83.53
46942;BME280;32676;52.630;4.896;2022-12-20T01:11:24;103728.56;;;8.73;83.67
46942;BME280;32676;52.630;4.896;2022-12-20T01:13:52;103720.59;;;8.69;83.71
46942;BME280;32676;52.630;4.896;2022-12-20T01:16:22;103732.94;;;8.74;83.67
46942;BME280;32676;52.630;4.896;2022-12-20T01:18:49;103742.59;;;8.75;83.83
46942;BME280;32676;52.630;4.896;2022-12-20T01:21:18;103752.28;;;8.79;83.84
46942;BME280;32676;52.630;4.896;2022-12-20T01:23:47;103755.81;;;8.81;83.99
46942;BME280;32676;52.630;4.896;2022-12-20T01:26:15;103758.44;;;8.81;83.93
46942;BME280;32676;52.630;4.896;2022-12-20T01:28:44;103746.19;;;8.80;83.94
46942;BME280;32676;52.630;4.896;2022-12-20T01:31:13;103738.28;;;8.79;83.83
46942;BME280;32676;52.630;4.896;2022-12-20T01:33:40;103732.16;;;8.78;83.82
46942;BME280;32676;52.630;4.896;2022-12-20T01:36:10;103723.38;;;8.76;84.07
46942;BME280;32676;52.630;4.896;2022-12-20T01:38:37;103720.75;;;8.76;83.98
46942;BME280;32676;52.630;4.896;2022-12-20T01:41:05;103718.13;;;8.76;84.07
46942;BME280;32676;52.630;4.896;2022-12-20T01:43:47;103714.59;;;8.74;84.21
46942;BME280;32676;52.630;4.896;2022-12-20T01:46:14;103718.94;;;8.74;84.39
46942;BME280;32676;52.630;4.896;2022-12-20T01:48:41;103709.34;;;8.74;84.52
46942;BME280;32676;52.630;4.896;2022-12-20T01:51:09;103714.59;;;8.74;84.67
46942;BME280;32676;52.630;4.896;2022-12-20T01:53:36;103699.69;;;8.72;84.76
46942;BME280;32676;52.630;4.896;2022-12-20T01:56:05;103690.91;;;8.71;85.06
46942;BME280;32676;52.630;4.896;2022-12-20T01:58:33;103682.13;;;8.69;85.17
46942;BME280;32676;52.630;4.896;2022-12-20T02:01:00;103673.34;;;8.67;85.25
46942;BME280;32676;52.630;4.896;2022-12-20T02:03:29;103674.22;;;8.66;85.51
46942;BME280;32676;52.630;4.896;2022-12-20T02:05:56;103646.13;;;8.59;85.67
46942;BME280;32676;52.630;4.896;2022-12-20T02:08:22;103640.91;;;8.62;85.86
46942;BME280;32676;52.630;4.896;2022-12-20T02:11:03;103621.53;;;8.54;85.90
46942;BME280;32676;52.630;4.896;2022-12-20T02:13:43;103630.38;;;8.59;86.00
46942;BME280;32676;52.630;4.896;2022-12-20T02:16:14;103611.09;;;8.55;86.18
46942;BME280;32676;52.630;4.896;2022-12-20T02:18:51;103619.91;;;8.59;86.07
46942;BME280;32676;52.630;4.896;2022-12-20T02:21:27;103621.63;;;8.57;86.29
46942;BME280;32676;52.630;4.896;2022-12-20T02:24:25;103625.16;;;8.59;86.42
46942;BME280;32676;52.630;4.896;2022-12-20T02:27:14;103620.78;;;8.59;86.44
46942;BME280;32676;52.630;4.896;2022-12-20T02:30:01;103619.91;;;8.59;86.80
46942;BME280;32676;52.630;4.896;2022-12-20T02:32:33;103619.91;;;8.59;86.83
46942;BME280;32676;52.630;4.896;2022-12-20T02:35:04;103621.66;;;8.60;86.97
46942;BME280;32676;52.630;4.896;2022-12-20T02:37:31;103623.44;;;8.61;87.02
46942;BME280;32676;52.630;4.896;2022-12-20T02:39:58;103619.94;;;8.60;86.96
46942;BME280;32676;52.630;4.896;2022-12-20T02:42:25;103618.19;;;8.61;87.05
46942;BME280;32676;52.630;4.896;2022-12-20T02:44:56;103619.06;;;8.61;87.21
46942;BME280;32676;52.630;4.896;2022-12-20T02:47:47;103619.94;;;8.62;87.06
46942;BME280;32676;52.630;4.896;2022-12-20T02:50:20;103618.19;;;8.61;87.24
46942;BME280;32676;52.630;4.896;2022-12-20T02:52:48;103626.09;;;8.64;87.38
46942;BME280;32676;52.630;4.896;2022-12-20T02:55:16;103608.53;;;8.60;87.11
46942;BME280;32676;52.630;4.896;2022-12-20T02:57:49;103612.94;;;8.61;87.13
46942;BME280;32676;52.630;4.896;2022-12-20T03:00:18;103607.56;;;8.55;87.26
46942;BME280;32676;52.630;4.896;2022-12-20T03:02:49;103614.69;;;8.62;87.40
46942;BME280;32676;52.630;4.896;2022-12-20T03:05:38;103622.63;;;8.65;87.43
46942;BME280;32676;52.630;4.896;2022-12-20T03:08:08;103626.84;;;8.57;87.58
46942;BME280;32676;52.630;4.896;2022-12-20T03:10:35;103647.22;;;8.70;87.53
46942;BME280;32676;52.630;4.896;2022-12-20T03:13:02;103658.63;;;8.72;87.42
46942;BME280;32676;52.630;4.896;2022-12-20T03:15:29;103670.94;;;8.76;87.46
46942;BME280;32676;52.630;4.896;2022-12-20T03:17:56;103666.59;;;8.77;87.55
46942;BME280;32676;52.630;4.896;2022-12-20T03:20:23;103669.22;;;8.78;87.71
46942;BME280;32676;52.630;4.896;2022-12-20T03:22:49;103683.28;;;8.80;87.69
46942;BME280;32676;52.630;4.896;2022-12-20T03:25:16;103677.97;;;8.77;87.58
46942;BME280;32676;52.630;4.896;2022-12-20T03:27:43;103689.44;;;8.82;87.68
46942;BME280;32676;52.630;4.896;2022-12-20T03:30:11;103686.75;;;8.79;87.76
46942;BME280;32676;52.630;4.896;2022-12-20T03:32:38;103691.22;;;8.85;87.71
46942;BME280;32676;52.630;4.896;2022-12-20T03:35:06;103697.34;;;8.86;87.67
46942;BME280;32676;52.630;4.896;2022-12-20T03:37:33;103695.59;;;8.84;87.56
46942;BME280;32676;52.630;4.896;2022-12-20T03:39:59;103700.88;;;8.88;87.80
46942;BME280;32676;52.630;4.896;2022-12-20T03:42:26;103703.50;;;8.88;87.87
46942;BME280;32676;52.630;4.896;2022-12-20T03:44:52;103702.59;;;8.86;87.66
46942;BME280;32676;52.630;4.896;2022-12-20T03:47:18;103705.25;;;8.87;87.53
46942;BME280;32676;52.630;4.896;2022-12-20T03:49:45;103707.78;;;8.82;87.51
46942;BME280;32676;52.630;4.896;2022-12-20T03:52:13;103721.94;;;8.91;87.55
46942;BME280;32676;52.630;4.896;2022-12-20T03:54:40;103723.75;;;8.93;87.50
46942;BME280;32676;52.630;4.896;2022-12-20T03:57:06;103722.84;;;8.93;87.37
46942;BME280;32676;52.630;4.896;2022-12-20T03:59:33;103727.25;;;8.94;87.62
46942;BME280;32676;52.630;4.896;2022-12-20T04:02:00;103722.00;;;8.94;87.53
46942;BME280;32676;52.630;4.896;2022-12-20T04:04:26;103727.16;;;8.91;87.35
46942;BME280;32676;52.630;4.896;2022-12-20T04:06:53;103736.03;;;8.96;87.30
46942;BME280;32676;52.630;4.896;2022-12-20T04:09:21;103733.44;;;8.97;87.44
46942;BME280;32676;52.630;4.896;2022-12-20T04:11:47;103739.56;;;8.98;87.37
46942;BME280;32676;52.630;4.896;2022-12-20T04:14:14;103733.47;;;8.99;87.06
46942;BME280;32676;52.630;4.896;2022-12-20T04:16:40;103734.31;;;8.98;87.03
46942;BME280;32676;52.630;4.896;2022-12-20T04:19:07;103714.94;;;8.90;87.03
46942;BME280;32676;52.630;4.896;2022-12-20T04:21:34;103723.75;;;8.93;87.01
46942;BME280;32676;52.630;4.896;2022-12-20T04:24:01;103727.31;;;8.97;86.84
46942;BME280;32676;52.630;4.896;2022-12-20T04:26:30;103704.44;;;8.90;86.89
46942;BME280;32676;52.630;4.896;2022-12-20T04:28:57;103706.28;;;8.94;86.87
46942;BME280;32676;52.630;4.896;2022-12-20T04:31:23;103701.88;;;8.93;86.70
46942;BME280;32676;52.630;4.896;2022-12-20T04:33:50;103696.59;;;8.91;86.83
46942;BME280;32676;52.630;4.896;2022-12-20T04:36:17;103692.25;;;8.92;86.72
46942;BME280;32676;52.630;4.896;2022-12-20T04:38:44;103683.47;;;8.90;86.68
46942;BME280;32676;52.630;4.896;2022-12-20T04:41:10;103675.50;;;8.85;86.74
46942;BME280;32676;52.630;4.896;2022-12-20T04:43:48;103672.03;;;8.88;86.77
46942;BME280;32676;52.630;4.896;2022-12-20T04:46:16;103684.38;;;8.92;86.84
46942;BME280;32676;52.630;4.896;2022-12-20T04:48:43;103687.00;;;8.92;86.71
46942;BME280;32676;52.630;4.896;2022-12-20T04:51:10;103667.66;;;8.87;86.77
46942;BME280;32676;52.630;4.896;2022-12-20T04:53:36;103687.91;;;8.94;86.80
46942;BME280;32676;52.630;4.896;2022-12-20T04:56:12;103683.50;;;8.93;86.81
46942;BME280;32676;52.630;4.896;2022-12-20T04:58:39;103676.44;;;8.89;86.63
46942;BME280;32676;52.630;4.896;2022-12-20T05:01:07;103678.25;;;8.93;86.76
46942;BME280;32676;52.630;4.896;2022-12-20T05:03:34;103690.53;;;8.94;86.58
46942;BME280;32676;52.630;4.896;2022-12-20T05:06:00;103691.44;;;8.96;86.57
46942;BME280;32676;52.630;4.896;2022-12-20T05:08:27;103704.63;;;8.99;86.60
46942;BME280;32676;52.630;4.896;2022-12-20T05:10:53;103709.00;;;9.00;86.76
46942;BME280;32676;52.630;4.896;2022-12-20T05:13:20;103722.19;;;9.03;86.75
46942;BME280;32676;52.630;4.896;2022-12-20T05:15:49;103721.34;;;9.04;86.85
46942;BME280;32676;52.630;4.896;2022-12-20T05:18:18;103728.28;;;9.02;86.65
46942;BME280;32676;52.630;4.896;2022-12-20T05:20:46;103732.69;;;9.03;86.82
46942;BME280;32676;52.630;4.896;2022-12-20T05:23:13;103738.97;;;9.10;86.69
46942;BME280;32676;52.630;4.896;2022-12-20T05:25:56;103738.03;;;9.09;86.74
46942;BME280;32676;52.630;4.896;2022-12-20T05:28:40;103726.59;;;9.06;86.95
46942;BME280;32676;52.630;4.896;2022-12-20T05:31:07;103723.16;;;9.07;87.43
46942;BME280;32676;52.630;4.896;2022-12-20T05:33:34;103709.88;;;8.99;87.67
46942;BME280;32676;52.630;4.896;2022-12-20T05:36:01;103718.78;;;9.07;88.19
46942;BME280;32676;52.630;4.896;2022-12-20T05:38:28;103713.34;;;8.98;88.54
46942;BME280;32676;52.630;4.896;2022-12-20T05:40:54;103702.84;;;8.98;88.90
46942;BME280;32676;52.630;4.896;2022-12-20T05:43:21;103702.84;;;8.98;89.19
46942;BME280;32676;52.630;4.896;2022-12-20T05:45:48;103720.53;;;9.07;89.03
46942;BME280;32676;52.630;4.896;2022-12-20T05:48:16;103715.25;;;9.05;89.23
46942;BME280;32676;52.630;4.896;2022-12-20T05:50:44;103710.88;;;9.04;89.45
46942;BME280;32676;52.630;4.896;2022-12-20T05:53:11;103717.94;;;9.08;89.55
46942;BME280;32676;52.630;4.896;2022-12-20T05:55:42;103712.69;;;9.08;89.65
46942;BME280;32676;52.630;4.896;2022-12-20T05:58:09;103704.75;;;9.05;89.76
46942;BME280;32676;52.630;4.896;2022-12-20T06:00:37;103700.38;;;9.06;89.80
46942;BME280;32676;52.630;4.896;2022-12-20T06:03:04;103680.03;;;8.94;89.68
46942;BME280;32676;52.630;4.896;2022-12-20T06:05:31;103681.06;;;9.00;89.89
46942;BME280;32676;52.630;4.896;2022-12-20T06:07:58;103672.25;;;8.98;89.86
46942;BME280;32676;52.630;4.896;2022-12-20T06:10:25;103655.56;;;8.95;89.97
46942;BME280;32676;52.630;4.896;2022-12-20T06:12:51;103653.81;;;8.94;90.11
46942;BME280;32676;52.630;4.896;2022-12-20T06:15:18;103636.31;;;8.93;90.27
46942;BME280;32676;52.630;4.896;2022-12-20T06:17:44;103637.19;;;8.92;90.34
46942;BME280;32676;52.630;4.896;2022-12-20T06:20:12;103613.31;;;8.79;90.17
46942;BME280;32676;52.630;4.896;2022-12-20T06:22:38;103627.53;;;8.91;90.26
46942;BME280;32676;52.630;4.896;2022-12-20T06:25:07;103627.53;;;8.91;90.29
46942;BME280;32676;52.630;4.896;2022-12-20T06:27:34;103621.41;;;8.90;90.34
46942;BME280;32676;52.630;4.896;2022-12-20T06:30:01;103624.06;;;8.92;90.45
46942;BME280;32676;52.630;4.896;2022-12-20T06:32:27;103628.41;;;8.91;90.41
46942;BME280;32676;52.630;4.896;2022-12-20T06:34:54;103637.22;;;8.93;90.21
46942;BME280;32676;52.630;4.896;2022-12-20T06:37:20;103638.09;;;8.94;90.28
46942;BME280;32676;52.630;4.896;2022-12-20T06:39:47;103644.25;;;8.96;90.29
46942;BME280;32676;52.630;4.896;2022-12-20T06:42:14;103639.84;;;8.95;90.43
46942;BME280;32676;52.630;4.896;2022-12-20T06:44:41;103653.94;;;9.00;90.30
46942;BME280;32676;52.630;4.896;2022-12-20T06:47:07;103641.63;;;8.96;90.43
46942;BME280;32676;52.630;4.896;2022-12-20T06:49:34;103632.91;;;8.97;90.33
46942;BME280;32676;52.630;4.896;2022-12-20T06:52:00;103646.94;;;8.99;90.24
46942;BME280;32676;52.630;4.896;2022-12-20T06:54:27;103640.78;;;8.98;90.13
46942;BME280;32676;52.630;4.896;2022-12-20T06:56:53;103627.53;;;8.91;90.25
46942;BME280;32676;52.630;4.896;2022-12-20T06:59:21;103635.53;;;8.98;89.98
46942;BME280;32676;52.630;4.896;2022-12-20T07:01:48;103667.16;;;9.05;90.02
46942;BME280;32676;52.630;4.896;2022-12-20T07:04:14;103651.34;;;9.01;90.07
46942;BME280;32676;52.630;4.896;2022-12-20T07:06:41;103652.22;;;9.02;90.01
46942;BME280;32676;52.630;4.896;2022-12-20T07:09:08;103649.59;;;9.02;89.94
46942;BME280;32676;52.630;4.896;2022-12-20T07:11:35;103652.22;;;9.02;89.57
46942;BME280;32676;52.630;4.896;2022-12-20T07:14:02;103657.47;;;9.02;89.70
46942;BME280;32676;52.630;4.896;2022-12-20T07:16:30;103648.69;;;9.00;89.74
46942;BME280;32676;52.630;4.896;2022-12-20T07:18:57;103643.50;;;9.03;89.51
46942;BME280;32676;52.630;4.896;2022-12-20T07:21:23;103652.22;;;9.02;89.29
46942;BME280;32676;52.630;4.896;2022-12-20T07:23:50;103650.53;;;9.04;89.27
46942;BME280;32676;52.630;4.896;2022-12-20T07:26:16;103659.31;;;9.06;89.04
46942;BME280;32676;52.630;4.896;2022-12-20T07:28:43;103662.84;;;9.08;88.93
46942;BME280;32676;52.630;4.896;2022-12-20T07:31:09;103668.09;;;9.08;88.84
46942;BME280;32676;52.630;4.896;2022-12-20T07:33:38;103680.34;;;9.09;88.81
46942;BME280;32676;52.630;4.896;2022-12-20T07:36:06;103654.84;;;9.00;88.77
46942;BME280;32676;52.630;4.896;2022-12-20T07:38:33;103689.19;;;9.14;88.61
46942;BME280;32676;52.630;4.896;2022-12-20T07:41:00;103688.34;;;9.15;88.41
46942;BME280;32676;52.630;4.896;2022-12-20T07:43:31;103688.34;;;9.15;88.33
46942;BME280;32676;52.630;4.896;2022-12-20T07:45:59;103705.00;;;9.17;88.25
46942;BME280;32676;52.630;4.896;2022-12-20T07:48:25;103681.16;;;9.07;88.00
46942;BME280;32676;52.630;4.896;2022-12-20T07:50:57;103709.44;;;9.21;87.85
46942;BME280;32676;52.630;4.896;2022-12-20T07:53:25;103720.84;;;9.23;87.69
46942;BME280;32676;52.630;4.896;2022-12-20T07:55:53;103720.81;;;9.20;87.82
46942;BME280;32676;52.630;4.896;2022-12-20T07:58:21;103741.06;;;9.29;87.38
46942;BME280;32676;52.630;4.896;2022-12-20T08:00:48;103751.66;;;9.32;87.38
46942;BME280;32676;52.630;4.896;2022-12-20T08:03:17;103748.91;;;9.28;87.14
46942;BME280;32676;52.630;4.896;2022-12-20T08:05:49;103760.38;;;9.33;87.23
46942;BME280;32676;52.630;4.896;2022-12-20T08:08:19;103780.66;;;9.40;87.04
46942;BME280;32676;52.630;4.896;2022-12-20T08:10:46;103788.56;;;9.41;86.66
46942;BME280;32676;52.630;4.896;2022-12-20T08:13:13;103796.47;;;9.43;86.53
46942;BME280;32676;52.630;4.896;2022-12-20T08:15:40;103793.00;;;9.44;86.48
46942;BME280;32676;52.630;4.896;2022-12-20T08:18:07;103803.56;;;9.47;86.37
46942;BME280;32676;52.630;4.896;2022-12-20T08:20:34;103816.72;;;9.49;86.19
46942;BME280;32676;52.630;4.896;2022-12-20T08:23:02;103818.53;;;9.53;86.06
46942;BME280;32676;52.630;4.896;2022-12-20T08:25:30;103838.72;;;9.55;86.05
46942;BME280;32676;52.630;4.896;2022-12-20T08:27:56;103842.28;;;9.57;85.84
46942;BME280;32676;52.630;4.896;2022-12-20T08:30:25;103872.13;;;9.63;85.70
46942;BME280;32676;52.630;4.896;2022-12-20T08:32:52;103897.66;;;9.70;85.45
46942;BME280;32676;52.630;4.896;2022-12-20T08:35:18;103935.47;;;9.78;85.44
46942;BME280;32676;52.630;4.896;2022-12-20T08:37:45;103957.50;;;9.85;84.94
46942;BME280;32676;52.630;4.896;2022-12-20T08:40:12;103982.13;;;9.90;84.81
46942;BME280;32676;52.630;4.896;2022-12-20T08:42:40;103994.47;;;9.94;84.80
46942;BME280;32676;52.630;4.896;2022-12-20T08:45:07;104001.44;;;9.92;84.56
46942;BME280;32676;52.630;4.896;2022-12-20T08:47:33;104014.66;;;9.96;84.28
46942;BME280;32676;52.630;4.896;2022-12-20T08:50:00;104019.16;;;10.01;84.48
46942;BME280;32676;52.630;4.896;2022-12-20T08:52:27;104026.16;;;10.02;84.30
46942;BME280;32676;52.630;4.896;2022-12-20T08:54:53;104034.09;;;10.05;84.57
46942;BME280;32676;52.630;4.896;2022-12-20T08:57:20;104035.88;;;10.06;84.59
46942;BME280;32676;52.630;4.896;2022-12-20T08:59:48;104039.44;;;10.08;84.72
46942;BME280;32676;52.630;4.896;2022-12-20T09:02:14;104044.69;;;10.08;84.83
46942;BME280;32676;52.630;4.896;2022-12-20T09:04:41;104039.44;;;10.08;84.88
46942;BME280;32676;52.630;4.896;2022-12-20T09:07:08;104037.66;;;10.07;84.95
46942;BME280;32676;52.630;4.896;2022-12-20T09:09:35;104033.25;;;10.06;84.99
46942;BME280;32676;52.630;4.896;2022-12-20T09:12:02;104033.28;;;10.07;84.86
46942;BME280;32676;52.630;4.896;2022-12-20T09:14:28;104038.56;;;10.09;85.28
46942;BME280;32676;52.630;4.896;2022-12-20T09:16:56;104044.75;;;10.11;85.13
46942;BME280;32676;52.630;4.896;2022-12-20T09:19:23;104057.06;;;10.15;85.41
46942;BME280;32676;52.630;4.896;2022-12-20T09:21:49;104056.19;;;10.14;85.34
46942;BME280;32676;52.630;4.896;2022-12-20T09:24:16;104069.38;;;10.16;85.28
46942;BME280;32676;52.630;4.896;2022-12-20T09:26:42;104072.84;;;10.15;85.13
46942;BME280;32676;52.630;4.896;2022-12-20T09:29:08;104078.25;;;10.21;85.27
46942;BME280;32676;52.630;4.896;2022-12-20T09:31:35;104076.44;;;10.17;85.29
46942;BME280;32676;52.630;4.896;2022-12-20T09:34:03;104084.47;;;10.25;85.17
46942;BME280;32676;52.630;4.896;2022-12-20T09:36:29;104098.53;;;10.27;85.07
46942;BME280;32676;52.630;4.896;2022-12-20T09:38:56;104103.75;;;10.25;85.14
46942;BME280;32676;52.630;4.896;2022-12-20T09:41:30;104101.19;;;10.28;84.98
46942;BME280;32676;52.630;4.896;2022-12-20T09:43:57;104113.56;;;10.32;85.10
46942;BME280;32676;52.630;4.896;2022-12-20T09:46:26;104124.16;;;10.35;84.92
46942;BME280;32676;52.630;4.896;2022-12-20T09:48:53;104141.78;;;10.40;84.63
46942;BME280;32676;52.630;4.896;2022-12-20T09:51:46;104140.91;;;10.39;84.90
46942;BME280;32676;52.630;4.896;2022-12-20T09:54:24;104154.13;;;10.44;84.64
46942;BME280;32676;52.630;4.896;2022-12-20T09:56:59;104162.00;;;10.44;84.55
46942;BME280;32676;52.630;4.896;2022-12-20T09:59:29;104182.31;;;10.51;84.49
46942;BME280;32676;52.630;4.896;2022-12-20T10:01:59;104187.66;;;10.54;84.37
46942;BME280;32676;52.630;4.896;2022-12-20T10:04:27;104196.47;;;10.56;84.52
46942;BME280;32676;52.630;4.896;2022-12-20T10:07:07;104209.69;;;10.59;84.39
46942;BME280;32676;52.630;4.896;2022-12-20T10:09:52;104207.88;;;10.56;84.34
46942;BME280;32676;52.630;4.896;2022-12-20T10:12:28;104206.19;;;10.60;84.40
46942;BME280;32676;52.630;4.896;2022-12-20T10:15:18;104201.72;;;10.56;84.02
46942;BME280;32676;52.630;4.896;2022-12-20T10:17:57;104197.44;;;10.60;84.27
46942;BME280;32676;52.630;4.896;2022-12-20T10:20:40;104195.63;;;10.57;84.22
46942;BME280;32676;52.630;4.896;2022-12-20T10:23:17;104203.56;;;10.60;84.36
46942;BME280;32676;52.630;4.896;2022-12-20T10:25:49;104185.94;;;10.56;84.63
46942;BME280;32676;52.630;4.896;2022-12-20T10:28:16;104163.00;;;10.49;84.42
46942;BME280;32676;52.630;4.896;2022-12-20T10:30:43;104170.09;;;10.53;84.76
46942;BME280;32676;52.630;4.896;2022-12-20T10:33:15;104153.38;;;10.49;84.82
46942;BME280;32676;52.630;4.896;2022-12-20T10:35:44;104138.41;;;10.47;84.85
46942;BME280;32676;52.630;4.896;2022-12-20T10:38:13;104134.94;;;10.48;84.94
46942;BME280;32676;52.630;4.896;2022-12-20T10:40:44;104124.22;;;10.38;85.06
46942;BME280;32676;52.630;4.896;2022-12-20T10:43:14;104144.63;;;10.50;85.61
46942;BME280;32676;52.630;4.896;2022-12-20T10:45:42;104133.16;;;10.47;85.57
46942;BME280;32676;52.630;4.896;2022-12-20T10:48:25;104123.38;;;10.40;85.46
46942;BME280;32676;52.630;4.896;2022-12-20T10:50:56;104144.59;;;10.49;85.26
46942;BME280;32676;52.630;4.896;2022-12-20T10:53:24;104149.91;;;10.50;85.46
46942;BME280;32676;52.630;4.896;2022-12-20T10:55:52;104143.81;;;10.53;85.87
46942;BME280;32676;52.630;4.896;2022-12-20T10:58:30;104142.03;;;10.52;85.79
46942;BME280;32676;52.630;4.896;2022-12-20T11:01:12;104133.25;;;10.50;85.92
46942;BME280;32676;52.630;4.896;2022-12-20T11:03:52;104136.78;;;10.52;86.11
46942;BME280;32676;52.630;4.896;2022-12-20T11:06:21;104131.53;;;10.52;85.76
46942;BME280;32676;52.630;4.896;2022-12-20T11:08:49;104122.72;;;10.50;86.14
46942;BME280;32676;52.630;4.896;2022-12-20T11:11:18;104136.78;;;10.52;86.04
46942;BME280;32676;52.630;4.896;2022-12-20T11:13:47;104141.16;;;10.53;86.21
46942;BME280;32676;52.630;4.896;2022-12-20T11:16:28;104142.09;;;10.55;86.19
46942;BME280;32676;52.630;4.896;2022-12-20T11:19:10;104157.94;;;10.58;86.10
46942;BME280;32676;52.630;4.896;2022-12-20T11:21:45;104136.81;;;10.55;86.19
46942;BME280;32676;52.630;4.896;2022-12-20T11:24:20;104136.72;;;10.49;86.19
46942;BME280;32676;52.630;4.896;2022-12-20T11:26:59;104150.97;;;10.60;86.33
46942;BME280;32676;52.630;4.896;2022-12-20T11:29:42;104159.72;;;10.59;86.36
46942;BME280;32676;52.630;4.896;2022-12-20T11:32:22;104150.84;;;10.54;86.21
46942;BME280;32676;52.630;4.896;2022-12-20T11:34:59;104153.56;;;10.57;86.17
46942;BME280;32676;52.630;4.896;2022-12-20T11:37:35;104163.34;;;10.64;86.33
46942;BME280;32676;52.630;4.896;2022-12-20T11:40:15;104180.97;;;10.68;86.31
46942;BME280;32676;52.630;4.896;2022-12-20T11:42:53;104187.97;;;10.69;86.08
46942;BME280;32676;52.630;4.896;2022-12-20T11:45:30;104194.19;;;10.73;86.16
46942;BME280;32676;52.630;4.896;2022-12-20T11:48:11;104198.50;;;10.69;86.06
46942;BME280;32676;52.630;4.896;2022-12-20T11:50:50;104222.41;;;10.80;85.98
46942;BME280;32676;52.630;4.896;2022-12-20T11:53:22;104226.78;;;10.80;85.83
46942;BME280;32676;52.630;4.896;2022-12-20T11:55:56;104232.09;;;10.81;85.85
46942;BME280;32676;52.630;4.896;2022-12-20T11:58:26;104238.31;;;10.85;85.97
46942;BME280;32676;52.630;4.896;2022-12-20T12:01:00;104230.41;;;10.85;86.05
46942;BME280;32676;52.630;4.896;2022-12-20T12:03:32;104237.44;;;10.86;86.05
46942;BME280;32676;52.630;4.896;2022-12-20T12:06:02;104237.38;;;10.83;85.75
46942;BME280;32676;52.630;4.896;2022-12-20T12:08:37;104229.47;;;10.81;86.09
46942;BME280;32676;52.630;4.896;2022-12-20T12:11:11;104246.28;;;10.89;86.07
46942;BME280;32676;52.630;4.896;2022-12-20T12:13:41;104254.16;;;10.89;85.97
46942;BME280;32676;52.630;4.896;2022-12-20T12:16:11;104257.69;;;10.88;85.65
46942;BME280;32676;52.630;4.896;2022-12-20T12:18:41;104279.81;;;10.98;85.65
46942;BME280;32676;52.630;4.896;2022-12-20T12:21:15;104277.97;;;10.94;85.93
46942;BME280;32676;52.630;4.896;2022-12-20T12:23:51;104283.34;;;11.00;85.55
46942;BME280;32676;52.630;4.896;2022-12-20T12:26:26;104295.66;;;11.01;85.61
46942;BME280;32676;52.630;4.896;2022-12-20T12:28:54;104281.63;;;11.02;85.88
46942;BME280;32676;52.630;4.896;2022-12-20T12:31:27;104301.88;;;11.05;85.62
46942;BME280;32676;52.630;4.896;2022-12-20T12:34:03;104296.63;;;11.05;85.68
46942;BME280;32676;52.630;4.896;2022-12-20T12:36:44;104284.22;;;10.99;85.64
46942;BME280;32676;52.630;4.896;2022-12-20T12:39:25;104308.09;;;11.08;85.43
46942;BME280;32676;52.630;4.896;2022-12-20T12:42:13;104299.22;;;11.03;85.83
46942;BME280;32676;52.630;4.896;2022-12-20T12:44:48;104309.88;;;11.09;85.74
46942;BME280;32676;52.630;4.896;2022-12-20T12:47:20;104304.59;;;11.09;85.80
46942;BME280;32676;52.630;4.896;2022-12-20T12:49:50;104313.44;;;11.11;85.88
46942;BME280;32676;52.630;4.896;2022-12-20T12:52:28;104336.34;;;11.16;86.15
46942;BME280;32676;52.630;4.896;2022-12-20T12:55:01;104346.94;;;11.20;86.20
46942;BME280;32676;52.630;4.896;2022-12-20T12:57:55;104371.69;;;11.27;85.88
46942;BME280;32676;52.630;4.896;2022-12-20T13:00:47;104382.28;;;11.30;85.96
46942;BME280;32676;52.630;4.896;2022-12-20T13:03:15;104387.56;;;11.30;85.97
46942;BME280;32676;52.630;4.896;2022-12-20T13:05:42;104371.59;;;11.24;85.87
46942;BME280;32676;52.630;4.896;2022-12-20T13:08:15;104386.72;;;11.32;85.84
46942;BME280;32676;52.630;4.896;2022-12-20T13:11:00;104380.41;;;11.26;85.69